createdAt,value
2022-08-01T00:00:06.491Z,18.23
2022-08-01T00:02:37.010Z,18.18
2022-08-01T00:05:05.812Z,18.16
2022-08-01T00:07:33.325Z,18.15
2022-08-01T00:10:00.832Z,18.21
2022-08-01T00:12:28.880Z,18.12
2022-08-01T00:14:55.547Z,18.03
2022-08-01T00:17:22.311Z,18.02
2022-08-01T00:19:48.835Z,17.96
2022-08-01T00:22:18.178Z,17.91
2022-08-01T00:24:44.725Z,17.93
2022-08-01T00:27:12.667Z,18.01
2022-08-01T00:30:11.682Z,18.07
2022-08-01T00:32:26.385Z,18.20
2022-08-01T00:34:55.819Z,18.23
2022-08-01T00:37:22.733Z,18.28
2022-08-01T00:39:49.655Z,18.32
2022-08-01T00:42:17.719Z,18.32
2022-08-01T00:44:44.257Z,18.38
2022-08-01T00:47:11.872Z,18.29
2022-08-01T00:49:40.491Z,18.21
2022-08-01T00:52:08.030Z,18.33
2022-08-01T00:54:36.767Z,18.34
2022-08-01T00:57:09.910Z,18.39
2022-08-01T00:59:37.730Z,18.39
2022-08-01T01:02:14.527Z,18.39
2022-08-01T01:04:41.779Z,18.43
2022-08-01T01:07:39.930Z,18.42
2022-08-01T01:10:23.643Z,18.41
2022-08-01T01:12:53.396Z,18.45
2022-08-01T01:15:37.092Z,18.48
2022-08-01T01:18:05.833Z,18.51
2022-08-01T01:20:39.231Z,18.45
2022-08-01T01:23:19.014Z,18.40
2022-08-01T01:26:23.009Z,18.44
2022-08-01T01:29:07.204Z,18.47
2022-08-01T01:31:41.681Z,18.49
2022-08-01T01:34:10.593Z,18.52
2022-08-01T01:36:39.195Z,18.51
2022-08-01T01:39:07.900Z,18.59
2022-08-01T01:41:37.693Z,18.63
2022-08-01T01:44:06.771Z,18.60
2022-08-01T01:46:34.624Z,18.63
2022-08-01T01:49:04.160Z,18.61
2022-08-01T01:51:32.242Z,18.56
2022-08-01T01:54:00.654Z,18.55
2022-08-01T01:56:28.694Z,18.46
2022-08-01T01:59:00.381Z,18.39
2022-08-01T02:01:58.536Z,18.29
2022-08-01T02:04:20.949Z,18.24
2022-08-01T02:06:50.929Z,18.05
2022-08-01T02:09:19.658Z,18.00
2022-08-01T02:12:07.605Z,17.88
2022-08-01T02:14:38.942Z,17.82
2022-08-01T02:17:05.642Z,17.74
2022-08-01T02:19:38.582Z,17.64
2022-08-01T02:22:21.721Z,17.54
2022-08-01T02:25:06.555Z,17.41
2022-08-01T02:27:45.098Z,17.35
2022-08-01T02:30:15.059Z,17.29
2022-08-01T02:32:52.163Z,17.26
2022-08-01T02:35:27.679Z,17.26
2022-08-01T02:37:57.297Z,17.28
2022-08-01T02:40:27.436Z,17.39
2022-08-01T02:42:56.709Z,17.55
2022-08-01T02:45:26.357Z,17.63
2022-08-01T02:48:06.359Z,17.75
2022-08-01T02:50:32.974Z,17.99
2022-08-01T02:53:01.258Z,18.11
2022-08-01T02:55:29.031Z,18.15
2022-08-01T02:58:00.763Z,18.09
2022-08-01T03:00:31.859Z,18.23
2022-08-01T03:03:02.347Z,18.30
2022-08-01T03:05:31.417Z,18.35
2022-08-01T03:08:02.543Z,18.26
2022-08-01T03:10:35.982Z,18.31
2022-08-01T03:13:06.266Z,18.33
2022-08-01T03:15:40.537Z,18.38
2022-08-01T03:18:10.463Z,18.43
2022-08-01T03:20:39.474Z,18.41
2022-08-01T03:23:09.729Z,18.31
2022-08-01T03:25:39.690Z,18.32
2022-08-01T03:28:07.575Z,18.27
2022-08-01T03:30:36.708Z,18.15
2022-08-01T03:33:04.528Z,18.14
2022-08-01T03:35:37.037Z,18.01
2022-08-01T03:38:16.102Z,18.13
2022-08-01T03:41:09.377Z,18.19
2022-08-01T03:43:48.285Z,18.16
2022-08-01T03:46:19.950Z,18.16
2022-08-01T03:48:51.991Z,18.10
2022-08-01T03:51:19.284Z,18.05
2022-08-01T03:53:48.535Z,17.96
2022-08-01T03:56:22.797Z,17.97
2022-08-01T03:58:58.440Z,18.04
2022-08-01T04:01:25.506Z,18.03
2022-08-01T04:03:52.348Z,18.03
2022-08-01T04:06:20.425Z,17.96
2022-08-01T04:08:56.583Z,17.93
2022-08-01T04:11:26.527Z,17.87
2022-08-01T04:13:54.223Z,18.00
2022-08-01T04:16:23.440Z,18.03
2022-08-01T04:18:50.045Z,18.08
2022-08-01T04:21:21.594Z,18.10
2022-08-01T04:23:51.529Z,18.05
2022-08-01T04:26:22.548Z,18.04
2022-08-01T04:28:51.984Z,17.98
2022-08-01T04:31:19.865Z,18.00
2022-08-01T04:33:50.749Z,18.05
2022-08-01T04:36:20.811Z,18.16
2022-08-01T04:38:51.624Z,18.29
2022-08-01T04:41:19.713Z,18.58
2022-08-01T04:43:47.629Z,18.81
2022-08-01T04:46:15.549Z,18.99
2022-08-01T04:48:42.471Z,19.09
2022-08-01T04:51:17.381Z,19.28
2022-08-01T04:53:46.809Z,19.44
2022-08-01T04:56:14.385Z,19.61
2022-08-01T04:58:42.364Z,19.68
2022-08-01T05:01:10.370Z,19.70
2022-08-01T05:03:39.142Z,19.78
2022-08-01T05:06:07.984Z,19.72
2022-08-01T05:08:34.552Z,19.73
2022-08-01T05:11:02.173Z,19.76
2022-08-01T05:13:28.960Z,20.02
2022-08-01T05:15:55.621Z,20.39
2022-08-01T05:18:28.288Z,21.25
2022-08-01T05:20:55.970Z,23.07
2022-08-01T05:23:31.061Z,23.78
2022-08-01T05:26:09.358Z,23.83
2022-08-01T05:28:37.692Z,23.97
2022-08-01T05:31:04.949Z,24.03
2022-08-01T05:33:31.492Z,23.76
2022-08-01T05:35:58.012Z,25.18
2022-08-01T05:38:24.556Z,27.70
2022-08-01T05:40:51.107Z,28.10
2022-08-01T05:43:17.644Z,28.03
2022-08-01T05:45:45.492Z,27.84
2022-08-01T05:48:12.255Z,29.58
2022-08-01T05:50:39.351Z,29.68
2022-08-01T05:53:06.589Z,28.82
2022-08-01T05:55:33.388Z,27.90
2022-08-01T05:58:03.164Z,27.30
2022-08-01T06:00:31.219Z,27.82
2022-08-01T06:02:59.000Z,28.05
2022-08-01T06:05:26.732Z,28.61
2022-08-01T06:07:53.479Z,28.46
2022-08-01T06:10:20.869Z,30.64
2022-08-01T06:12:47.503Z,32.15
2022-08-01T06:15:13.999Z,32.16
2022-08-01T06:17:42.194Z,32.31
2022-08-01T06:20:09.601Z,31.49
2022-08-01T06:22:36.404Z,31.15
2022-08-01T06:25:03.372Z,30.16
2022-08-01T06:27:36.266Z,28.88
2022-08-01T06:30:03.848Z,28.88
2022-08-01T06:32:30.686Z,30.28
2022-08-01T06:34:57.509Z,31.20
2022-08-01T06:37:24.676Z,31.80
2022-08-01T06:39:52.175Z,33.16
2022-08-01T06:42:19.101Z,31.78
2022-08-01T06:44:48.322Z,32.56
2022-08-01T06:47:14.714Z,34.37
2022-08-01T06:49:41.305Z,34.65
2022-08-01T06:52:09.385Z,34.96
2022-08-01T06:54:36.177Z,34.55
2022-08-01T06:57:06.986Z,35.81
2022-08-01T06:59:33.803Z,35.99
2022-08-01T07:02:01.930Z,34.99
2022-08-01T07:04:28.550Z,35.46
2022-08-01T07:06:55.460Z,35.49
2022-08-01T07:09:22.466Z,35.36
2022-08-01T07:11:49.005Z,36.05
2022-08-01T07:14:15.541Z,35.12
2022-08-01T07:16:43.135Z,35.62
2022-08-01T07:19:09.669Z,36.73
2022-08-01T07:21:38.612Z,36.97
2022-08-01T07:24:13.366Z,37.33
2022-08-01T07:26:52.462Z,36.22
2022-08-01T07:29:21.539Z,36.75
2022-08-01T07:31:48.097Z,36.99
2022-08-01T07:34:14.648Z,36.39
2022-08-01T07:36:41.212Z,37.61
2022-08-01T07:39:08.378Z,38.58
2022-08-01T07:42:02.986Z,36.55
2022-08-01T07:44:22.697Z,36.48
2022-08-01T07:46:49.209Z,38.04
2022-08-01T07:49:15.928Z,38.70
2022-08-01T07:51:42.521Z,38.67
2022-08-01T07:54:33.536Z,37.69
2022-08-01T07:57:00.525Z,38.33
2022-08-01T07:59:27.088Z,38.40
2022-08-01T08:01:53.666Z,38.82
2022-08-01T08:04:20.353Z,38.80
2022-08-01T08:06:48.531Z,38.67
2022-08-01T08:09:16.897Z,39.15
2022-08-01T08:11:47.875Z,39.96
2022-08-01T08:14:18.426Z,39.07
2022-08-01T08:16:45.429Z,39.04
2022-08-01T08:19:12.958Z,39.20
2022-08-01T08:21:39.849Z,39.37
2022-08-01T08:24:26.162Z,40.25
2022-08-01T08:27:01.764Z,38.19
2022-08-01T08:29:30.901Z,39.29
2022-08-01T08:31:57.651Z,39.54
2022-08-01T08:34:25.267Z,39.50
2022-08-01T08:36:52.909Z,40.66
2022-08-01T08:39:20.376Z,40.27
2022-08-01T08:41:50.796Z,38.80
2022-08-01T08:44:18.974Z,38.21
2022-08-01T08:46:46.704Z,39.19
2022-08-01T08:49:18.171Z,39.11
2022-08-01T08:51:47.638Z,38.75
2022-08-01T08:54:16.565Z,38.95
2022-08-01T08:56:45.006Z,39.89
2022-08-01T08:59:14.245Z,39.17
2022-08-01T09:01:42.457Z,39.72
2022-08-01T09:04:09.819Z,39.11
2022-08-01T09:06:36.784Z,38.31
2022-08-01T09:09:04.006Z,39.18
2022-08-01T09:11:30.942Z,40.18
2022-08-01T09:14:13.279Z,40.36
2022-08-01T09:16:48.507Z,39.38
2022-08-01T09:19:40.706Z,41.12
2022-08-01T09:22:12.778Z,39.30
2022-08-01T09:24:41.446Z,40.56
2022-08-01T09:27:21.931Z,39.55
2022-08-01T09:30:00.767Z,36.74
2022-08-01T09:32:34.769Z,37.46
2022-08-01T09:35:24.390Z,38.80
2022-08-01T09:38:31.061Z,38.36
2022-08-01T09:41:01.571Z,38.26
2022-08-01T09:43:32.227Z,38.65
2022-08-01T09:45:59.873Z,38.55
2022-08-01T09:48:29.640Z,37.87
2022-08-01T09:51:03.952Z,37.20
2022-08-01T09:53:52.385Z,37.90
2022-08-01T09:56:21.123Z,37.71
2022-08-01T09:59:01.015Z,39.01
2022-08-01T10:01:49.382Z,37.89
2022-08-01T10:04:16.913Z,38.11
2022-08-01T10:06:50.849Z,37.85
2022-08-01T10:09:28.697Z,37.60
2022-08-01T10:12:07.874Z,37.43
2022-08-01T10:14:37.252Z,35.27
2022-08-01T10:17:05.291Z,35.17
2022-08-01T10:19:33.696Z,35.62
2022-08-01T10:22:01.496Z,33.57
2022-08-01T10:24:33.622Z,33.43
2022-08-01T10:27:12.414Z,33.61
2022-08-01T10:30:05.450Z,33.93
2022-08-01T10:32:36.623Z,33.51
2022-08-01T10:35:07.293Z,31.49
2022-08-01T10:37:52.380Z,30.43
2022-08-01T10:40:30.319Z,29.77
2022-08-01T10:42:57.976Z,32.35
2022-08-01T10:45:27.482Z,34.40
2022-08-01T10:48:28.924Z,37.34
2022-08-01T10:50:59.059Z,37.03
2022-08-01T10:53:31.989Z,37.28
2022-08-01T10:56:11.105Z,36.62
2022-08-01T10:58:44.402Z,38.32
2022-08-01T11:01:26.322Z,37.41
2022-08-01T11:04:04.209Z,37.13
2022-08-01T11:06:33.854Z,38.00
2022-08-01T11:09:16.568Z,38.37
2022-08-01T11:12:13.412Z,37.72
2022-08-01T11:15:18.082Z,38.18
2022-08-01T11:17:57.858Z,37.17
2022-08-01T11:20:39.578Z,35.35
2022-08-01T11:23:09.392Z,36.61
2022-08-01T11:26:05.708Z,38.16
2022-08-01T11:28:32.372Z,37.92
2022-08-01T11:31:14.053Z,38.02
2022-08-01T11:33:45.760Z,38.09
2022-08-01T11:36:57.724Z,39.40
2022-08-01T11:39:22.849Z,38.40
2022-08-01T11:41:53.619Z,38.93
2022-08-01T11:44:30.134Z,37.40
2022-08-01T11:47:08.956Z,34.81
2022-08-01T11:49:44.944Z,35.69
2022-08-01T11:52:17.707Z,36.83
2022-08-01T11:54:50.628Z,37.58
2022-08-01T11:57:45.848Z,37.38
2022-08-01T12:00:18.604Z,38.10
2022-08-01T12:02:46.841Z,37.63
2022-08-01T12:05:17.386Z,37.23
2022-08-01T12:07:45.831Z,38.77
2022-08-01T12:10:13.609Z,38.54
2022-08-01T12:12:51.727Z,38.40
2022-08-01T12:15:20.913Z,38.25
2022-08-01T12:17:58.333Z,38.55
2022-08-01T12:20:30.460Z,37.39
2022-08-01T12:22:58.881Z,37.69
2022-08-01T12:25:25.530Z,36.92
2022-08-01T12:27:56.203Z,38.13
2022-08-01T12:30:24.914Z,37.92
2022-08-01T12:32:52.212Z,36.88
2022-08-01T12:35:26.861Z,36.93
2022-08-01T12:37:58.040Z,36.75
2022-08-01T12:40:26.197Z,36.21
2022-08-01T12:42:55.027Z,36.87
2022-08-01T12:45:27.603Z,36.51
2022-08-01T12:47:55.155Z,35.69
2022-08-01T12:50:26.523Z,37.39
2022-08-01T12:52:53.376Z,36.34
2022-08-01T12:55:21.605Z,36.18
2022-08-01T12:58:04.224Z,36.10
2022-08-01T13:00:30.915Z,35.57
2022-08-01T13:03:18.735Z,36.20
2022-08-01T13:05:51.270Z,36.60
2022-08-01T13:08:22.601Z,35.72
2022-08-01T13:10:51.119Z,35.78
2022-08-01T13:13:27.777Z,35.51
2022-08-01T13:16:06.286Z,35.41
2022-08-01T13:18:34.635Z,34.93
2022-08-01T13:21:21.315Z,34.38
2022-08-01T13:24:06.204Z,33.76
2022-08-01T13:26:46.203Z,34.40
2022-08-01T13:29:21.822Z,36.01
2022-08-01T13:31:48.935Z,36.44
2022-08-01T13:34:15.945Z,36.68
2022-08-01T13:36:49.133Z,35.75
2022-08-01T13:39:35.521Z,34.50
2022-08-01T13:42:02.191Z,34.29
2022-08-01T13:44:28.707Z,32.85
2022-08-01T13:46:56.938Z,32.39
2022-08-01T13:49:24.061Z,31.81
2022-08-01T13:51:51.636Z,31.17
2022-08-01T13:54:18.782Z,30.77
2022-08-01T13:56:45.953Z,30.69
2022-08-01T13:59:13.330Z,30.86
2022-08-01T14:01:40.060Z,30.81
2022-08-01T14:04:07.153Z,30.60
2022-08-01T14:06:34.058Z,30.56
2022-08-01T14:09:01.180Z,30.86
2022-08-01T14:11:36.989Z,31.14
2022-08-01T14:14:04.051Z,30.96
2022-08-01T14:16:31.001Z,30.87
2022-08-01T14:18:57.493Z,30.59
2022-08-01T14:21:24.011Z,30.61
2022-08-01T14:23:50.575Z,31.26
2022-08-01T14:26:17.092Z,31.71
2022-08-01T14:28:43.621Z,31.43
2022-08-01T14:31:10.245Z,31.50
2022-08-01T14:34:15.159Z,30.78
2022-08-01T14:36:43.633Z,30.43
2022-08-01T14:39:14.841Z,29.48
2022-08-01T14:41:41.731Z,29.45
2022-08-01T14:44:09.889Z,29.09
2022-08-01T14:46:51.409Z,28.84
2022-08-01T14:49:24.740Z,28.91
2022-08-01T14:51:51.332Z,28.70
2022-08-01T14:54:17.830Z,28.91
2022-08-01T14:56:54.094Z,29.15
2022-08-01T14:59:21.215Z,29.44
2022-08-01T15:01:48.575Z,29.94
2022-08-01T15:04:15.322Z,30.44
2022-08-01T15:06:42.110Z,30.53
2022-08-01T15:09:09.577Z,30.38
2022-08-01T15:11:36.178Z,30.28
2022-08-01T15:14:22.155Z,30.47
2022-08-01T15:16:48.978Z,30.36
2022-08-01T15:19:17.614Z,29.91
2022-08-01T15:21:44.500Z,30.25
2022-08-01T15:24:11.540Z,29.84
2022-08-01T15:26:38.137Z,29.48
2022-08-01T15:29:04.708Z,29.27
2022-08-01T15:31:31.499Z,29.46
2022-08-01T15:33:59.106Z,29.34
2022-08-01T15:36:28.470Z,29.07
2022-08-01T15:38:56.254Z,29.18
2022-08-01T15:41:22.845Z,29.34
2022-08-01T15:43:56.058Z,29.07
2022-08-01T15:46:23.613Z,28.91
2022-08-01T15:48:52.457Z,28.66
2022-08-01T15:51:19.115Z,28.19
2022-08-01T15:53:48.052Z,28.45
2022-08-01T15:56:14.703Z,28.16
2022-08-01T15:58:41.211Z,28.08
2022-08-01T16:01:07.759Z,27.92
2022-08-01T16:03:34.539Z,28.19
2022-08-01T16:06:01.165Z,27.89
2022-08-01T16:08:27.716Z,27.77
2022-08-01T16:10:54.334Z,27.84
2022-08-01T16:13:20.869Z,27.72
2022-08-01T16:15:47.410Z,27.68
2022-08-01T16:18:14.481Z,27.42
2022-08-01T16:20:45.434Z,27.35
2022-08-01T16:23:13.545Z,27.20
2022-08-01T16:25:40.109Z,26.99
2022-08-01T16:28:06.958Z,26.97
2022-08-01T16:30:33.502Z,26.88
2022-08-01T16:33:07.862Z,26.68
2022-08-01T16:35:46.910Z,26.65
2022-08-01T16:38:21.051Z,26.70
2022-08-01T16:40:48.652Z,26.61
2022-08-01T16:43:15.915Z,26.46
2022-08-01T16:45:43.169Z,26.41
2022-08-01T16:48:12.332Z,26.28
2022-08-01T16:50:39.613Z,26.18
2022-08-01T16:53:06.126Z,26.07
2022-08-01T16:55:50.113Z,26.25
2022-08-01T16:58:19.700Z,26.08
2022-08-01T17:00:56.598Z,26.04
2022-08-01T17:03:47.101Z,26.02
2022-08-01T17:06:12.686Z,25.87
2022-08-01T17:08:46.797Z,25.77
2022-08-01T17:11:14.664Z,25.64
2022-08-01T17:13:41.419Z,25.55
2022-08-01T17:16:09.025Z,25.49
2022-08-01T17:18:35.697Z,25.38
2022-08-01T17:21:02.784Z,25.25
2022-08-01T17:23:31.506Z,25.24
2022-08-01T17:25:58.565Z,25.25
2022-08-01T17:28:26.605Z,25.19
2022-08-01T17:30:53.402Z,25.08
2022-08-01T17:33:21.313Z,24.92
2022-08-01T17:35:48.331Z,24.91
2022-08-01T17:38:15.036Z,24.76
2022-08-01T17:40:41.960Z,24.65
2022-08-01T17:43:09.061Z,24.70
2022-08-01T17:45:39.359Z,24.68
2022-08-01T17:48:17.825Z,24.64
2022-08-01T17:50:46.318Z,24.66
2022-08-01T17:53:13.717Z,24.69
2022-08-01T17:55:55.741Z,24.55
2022-08-01T17:58:50.341Z,24.54
2022-08-01T18:01:17.222Z,24.49
2022-08-01T18:03:44.541Z,24.36
2022-08-01T18:06:19.827Z,24.44
2022-08-01T18:08:50.588Z,24.41
2022-08-01T18:11:22.464Z,24.23
2022-08-01T18:13:51.122Z,24.06
2022-08-01T18:16:17.677Z,23.97
2022-08-01T18:18:44.251Z,23.93
2022-08-01T18:21:12.275Z,23.91
2022-08-01T18:23:38.898Z,23.87
2022-08-01T18:26:07.521Z,23.80
2022-08-01T18:28:46.206Z,23.79
2022-08-01T18:31:17.691Z,23.67
2022-08-01T18:33:48.006Z,23.68
2022-08-01T18:36:31.998Z,23.77
2022-08-01T18:39:01.901Z,23.59
2022-08-01T18:41:31.514Z,23.49
2022-08-01T18:44:05.643Z,23.41
2022-08-01T18:46:37.042Z,23.30
2022-08-01T18:49:03.759Z,23.24
2022-08-01T18:51:30.461Z,23.25
2022-08-01T18:53:57.821Z,23.28
2022-08-01T18:56:24.515Z,23.24
2022-08-01T18:58:51.244Z,23.29
2022-08-01T19:01:17.919Z,23.38
2022-08-01T19:03:45.239Z,23.32
2022-08-01T19:06:11.811Z,23.19
2022-08-01T19:08:38.554Z,23.12
2022-08-01T19:11:05.910Z,22.99
2022-08-01T19:13:33.436Z,22.89
2022-08-01T19:16:00.640Z,22.80
2022-08-01T19:18:28.420Z,22.67
2022-08-01T19:20:55.071Z,22.50
2022-08-01T19:23:40.491Z,22.39
2022-08-01T19:26:12.501Z,22.31
2022-08-01T19:28:46.835Z,22.19
2022-08-01T19:31:14.872Z,22.16
2022-08-01T19:33:42.079Z,22.10
2022-08-01T19:36:14.789Z,22.06
2022-08-01T19:38:41.781Z,22.07
2022-08-01T19:41:08.883Z,22.08
2022-08-01T19:43:42.428Z,21.99
2022-08-01T19:46:17.232Z,21.92
2022-08-01T19:48:49.856Z,21.76
2022-08-01T19:51:22.765Z,21.56
2022-08-01T19:54:04.463Z,21.48
2022-08-01T19:56:37.638Z,21.43
2022-08-01T19:59:07.884Z,21.52
2022-08-01T20:01:36.514Z,21.52
2022-08-01T20:04:04.720Z,21.56
2022-08-01T20:06:32.002Z,21.58
2022-08-01T20:08:59.866Z,21.58
2022-08-01T20:11:27.098Z,21.54
2022-08-01T20:13:56.814Z,21.50
2022-08-01T20:16:28.735Z,21.44
2022-08-01T20:18:56.195Z,21.38
2022-08-01T20:21:31.273Z,21.36
2022-08-01T20:24:03.203Z,21.27
2022-08-01T20:26:31.750Z,21.19
2022-08-01T20:28:59.756Z,21.09
2022-08-01T20:31:36.133Z,20.99
2022-08-01T20:34:15.663Z,20.85
2022-08-01T20:36:54.714Z,20.78
2022-08-01T20:39:26.647Z,20.68
2022-08-01T20:41:59.617Z,20.67
2022-08-01T20:44:27.471Z,20.66
2022-08-01T20:46:55.215Z,20.67
2022-08-01T20:49:22.606Z,20.63
2022-08-01T20:51:50.736Z,20.55
2022-08-01T20:54:17.377Z,20.51
2022-08-01T20:57:09.113Z,20.45
2022-08-01T21:00:02.432Z,20.35
2022-08-01T21:02:52.213Z,20.20
2022-08-01T21:05:34.107Z,20.13
2022-08-01T21:08:12.613Z,20.11
2022-08-01T21:10:41.464Z,20.13
2022-08-01T21:13:21.297Z,20.21
2022-08-01T21:16:21.998Z,20.23
2022-08-01T21:19:10.091Z,20.35
2022-08-01T21:21:42.993Z,20.34
2022-08-01T21:24:18.575Z,20.29
2022-08-01T21:26:46.410Z,20.24
2022-08-01T21:29:14.305Z,20.14
2022-08-01T21:31:42.013Z,20.03
2022-08-01T21:34:09.772Z,19.91
2022-08-01T21:36:37.233Z,19.82
2022-08-01T21:39:06.506Z,19.74
2022-08-01T21:42:04.630Z,19.63
2022-08-01T21:44:22.837Z,19.53
2022-08-01T21:46:59.802Z,19.46
2022-08-01T21:49:28.000Z,19.45
2022-08-01T21:52:00.439Z,19.49
2022-08-01T21:54:38.004Z,19.50
2022-08-01T21:57:15.955Z,19.54
2022-08-01T21:59:49.894Z,19.58
2022-08-01T22:02:30.890Z,19.52
2022-08-01T22:05:03.709Z,19.50
2022-08-01T22:07:36.734Z,19.49
2022-08-01T22:10:05.945Z,19.42
2022-08-01T22:12:36.064Z,19.41
2022-08-01T22:15:06.011Z,19.33
2022-08-01T22:17:33.050Z,19.29
2022-08-01T22:20:00.415Z,19.18
2022-08-01T22:22:45.383Z,19.26
2022-08-01T22:25:15.625Z,19.16
2022-08-01T22:28:06.743Z,19.05
2022-08-01T22:30:30.323Z,18.97
2022-08-01T22:33:15.268Z,18.89
2022-08-01T22:35:49.911Z,18.76
2022-08-01T22:38:24.258Z,18.64
2022-08-01T22:41:00.531Z,18.66
2022-08-01T22:43:39.412Z,18.63
2022-08-01T22:46:17.330Z,18.65
2022-08-01T22:48:52.645Z,18.63
2022-08-01T22:51:40.905Z,18.64
2022-08-01T22:54:11.934Z,18.65
2022-08-01T22:56:49.601Z,18.63
2022-08-01T22:59:41.757Z,18.57
2022-08-01T23:02:15.404Z,18.57
2022-08-01T23:04:51.300Z,18.46
2022-08-01T23:07:28.212Z,18.51
2022-08-01T23:09:56.986Z,18.42
2022-08-01T23:12:25.506Z,18.35
2022-08-01T23:14:57.942Z,18.32
2022-08-01T23:17:29.223Z,18.29
2022-08-01T23:19:58.324Z,18.27
2022-08-01T23:22:29.189Z,18.23
2022-08-01T23:25:04.343Z,18.20
2022-08-01T23:27:57.857Z,18.16
2022-08-01T23:30:31.836Z,18.20
2022-08-01T23:32:59.010Z,18.28
2022-08-01T23:35:26.653Z,18.43
2022-08-01T23:38:02.089Z,18.52
2022-08-01T23:40:31.065Z,18.70
2022-08-01T23:42:57.641Z,18.83
2022-08-01T23:45:24.487Z,18.91
2022-08-01T23:47:52.181Z,19.00
2022-08-01T23:50:19.639Z,19.14
2022-08-01T23:52:54.399Z,19.24
2022-08-01T23:55:31.456Z,19.31
2022-08-01T23:58:06.744Z,19.32
